Terminal Aerodrome Forecast
Issued by NWS

Home | Current Version | Previous Version | Graphics & Text | Print | Product List | Glossary Off
Versions: 1 2 3 4 5 6 7 8 9 10 11 12 13 14 15 16 17 18

000
FTUS43 KDDC 271436 AAB
TAFGCK
TAF AMD
KGCK 271436Z 2715/2812 03013KT 3SM -SHRA BR FEW012 BKN035
     FM271600 05008KT P6SM VCSH OVC090
     FM272100 07006KT P6SM VCTS BKN040CB
     FM280000 09005KT P6SM BKN070=

USA.gov is the U.S. government's official web portal to all federal, state and local government web resources and services.